createdAt,value
2018-02-10T00:01:25.257Z,55.90
2018-02-10T00:03:52.802Z,55.80
2018-02-10T00:06:20.356Z,55.70
2018-02-10T00:08:47.892Z,55.70
2018-02-10T00:11:15.438Z,55.90
2018-02-10T00:13:43.735Z,55.90
2018-02-10T00:16:11.291Z,55.80
2018-02-10T00:18:39.572Z,56.00
2018-02-10T00:21:07.115Z,55.90
2018-02-10T00:23:35.437Z,56.00
2018-02-10T00:26:02.993Z,55.90
2018-02-10T00:28:30.535Z,56.00
2018-02-10T00:30:58.085Z,55.80
2018-02-10T00:33:26.401Z,56.00
2018-02-10T00:35:53.943Z,55.80
2018-02-10T00:38:21.497Z,55.90
2018-02-10T00:40:49.016Z,56.10
2018-02-10T00:43:16.576Z,56.10
2018-02-10T00:45:44.101Z,56.20
2018-02-10T00:48:11.654Z,56.30
2018-02-10T00:50:39.314Z,56.40
2018-02-10T00:53:06.875Z,56.40
2018-02-10T00:55:34.402Z,56.40
2018-02-10T00:58:02.720Z,56.50
2018-02-10T01:00:30.258Z,56.50
2018-02-10T01:02:57.814Z,56.50
2018-02-10T01:05:25.348Z,56.60
2018-02-10T01:07:52.912Z,56.40
2018-02-10T01:10:20.433Z,56.40
2018-02-10T01:12:47.979Z,56.50
2018-02-10T01:15:15.496Z,56.50
2018-02-10T01:17:43.919Z,56.60
2018-02-10T01:20:12.219Z,56.60
2018-02-10T01:22:39.770Z,56.60
2018-02-10T01:25:08.085Z,56.70
2018-02-10T01:27:35.624Z,56.70
2018-02-10T01:30:03.222Z,56.70
2018-02-10T01:32:31.521Z,56.80
2018-02-10T01:35:00.942Z,56.70
2018-02-10T01:37:28.477Z,56.80
2018-02-10T01:39:56.027Z,56.70
2018-02-10T01:42:24.322Z,56.70
2018-02-10T01:44:51.867Z,56.70
2018-02-10T01:47:20.176Z,56.80
2018-02-10T01:49:47.728Z,56.70
2018-02-10T01:52:15.269Z,56.70
2018-02-10T01:54:43.636Z,56.70
2018-02-10T01:57:11.935Z,56.70
2018-02-10T01:59:39.528Z,56.60
2018-02-10T02:02:07.046Z,56.60
2018-02-10T02:04:34.616Z,56.80
2018-02-10T02:07:02.160Z,56.80
2018-02-10T02:09:30.516Z,57.60
2018-02-10T02:11:58.075Z,56.90
2018-02-10T02:14:25.608Z,57.00
2018-02-10T02:16:53.171Z,57.20
2018-02-10T02:19:20.695Z,57.20
2018-02-10T02:21:48.266Z,57.20
2018-02-10T02:24:15.835Z,57.30
2018-02-10T02:26:43.387Z,57.30
2018-02-10T02:29:10.906Z,57.30
2018-02-10T02:31:38.453Z,57.30
2018-02-10T02:34:05.989Z,57.30
2018-02-10T02:36:33.536Z,57.30
2018-02-10T02:39:01.072Z,57.30
2018-02-10T02:41:29.398Z,57.30
2018-02-10T02:43:56.923Z,57.20
2018-02-10T02:46:24.477Z,57.30
2018-02-10T02:48:52.040Z,57.10
2018-02-10T02:51:20.368Z,57.20
2018-02-10T02:53:47.903Z,57.10
2018-02-10T02:56:15.444Z,57.20
2018-02-10T02:58:42.981Z,57.10
2018-02-10T03:01:11.311Z,57.10
2018-02-10T03:03:38.860Z,57.00
2018-02-10T03:06:06.396Z,57.00
2018-02-10T03:08:34.679Z,57.00
2018-02-10T03:11:02.250Z,56.90
2018-02-10T03:13:29.787Z,57.00
2018-02-10T03:15:58.100Z,57.00
2018-02-10T03:18:25.635Z,56.90
2018-02-10T03:20:53.202Z,56.90
2018-02-10T03:23:20.750Z,57.10
2018-02-10T03:25:49.060Z,57.00
2018-02-10T03:28:16.579Z,56.90
2018-02-10T03:30:44.915Z,57.00
2018-02-10T03:33:12.455Z,56.90
2018-02-10T03:35:39.981Z,56.80
2018-02-10T03:38:08.306Z,56.90
2018-02-10T03:40:35.840Z,56.90
2018-02-10T03:43:03.403Z,57.00
2018-02-10T03:45:30.956Z,57.00
2018-02-10T03:47:58.508Z,57.00
2018-02-10T03:50:26.806Z,57.10
2018-02-10T03:52:54.352Z,57.00
2018-02-10T03:55:22.659Z,57.10
2018-02-10T03:57:50.215Z,57.10
2018-02-10T04:00:27.976Z,57.10
2018-02-10T04:02:56.320Z,57.20
2018-02-10T04:05:23.843Z,57.10
2018-02-10T04:07:51.392Z,57.10
2018-02-10T04:10:18.945Z,57.20
2018-02-10T04:12:47.268Z,57.20
2018-02-10T04:15:14.805Z,57.10
2018-02-10T04:17:42.343Z,57.10
2018-02-10T04:20:09.885Z,57.20
2018-02-10T04:22:37.469Z,57.20
2018-02-10T04:25:05.758Z,57.20
2018-02-10T04:27:33.315Z,57.10
2018-02-10T04:30:00.852Z,57.10
2018-02-10T04:32:29.170Z,57.20
2018-02-10T04:34:56.709Z,57.10
2018-02-10T04:37:25.043Z,57.20
2018-02-10T04:39:52.607Z,57.10
2018-02-10T04:42:20.161Z,57.10
2018-02-10T04:44:47.678Z,57.20
2018-02-10T04:47:15.228Z,57.20
2018-02-10T04:49:43.528Z,57.30
2018-02-10T04:52:11.078Z,57.20
2018-02-10T04:54:38.625Z,57.20
2018-02-10T04:57:06.935Z,57.40
2018-02-10T04:59:34.477Z,57.30
2018-02-10T05:02:02.064Z,57.30
2018-02-10T05:04:29.595Z,57.30
2018-02-10T05:06:57.172Z,57.40
2018-02-10T05:09:24.700Z,57.40
2018-02-10T05:11:53.024Z,57.50
2018-02-10T05:14:20.557Z,57.40
2018-02-10T05:16:48.128Z,57.50
2018-02-10T05:19:15.675Z,57.40
2018-02-10T05:21:43.228Z,57.30
2018-02-10T05:24:11.543Z,57.50
2018-02-10T05:26:39.089Z,57.40
2018-02-10T05:29:06.634Z,57.50
2018-02-10T05:31:34.199Z,57.50
2018-02-10T05:34:01.731Z,57.50
2018-02-10T05:36:29.263Z,57.50
2018-02-10T05:38:56.860Z,58.10
2018-02-10T05:41:25.165Z,57.60
2018-02-10T05:43:52.726Z,57.50
2018-02-10T05:46:41.730Z,57.50
2018-02-10T05:49:09.289Z,57.60
2018-02-10T05:51:36.826Z,57.60
2018-02-10T05:54:04.389Z,57.60
2018-02-10T05:56:31.927Z,57.60
2018-02-10T05:58:59.552Z,57.50
2018-02-10T06:01:27.081Z,57.60
2018-02-10T06:03:55.400Z,57.60
2018-02-10T06:06:23.713Z,57.60
2018-02-10T06:08:51.245Z,57.60
2018-02-10T06:11:19.554Z,57.70
2018-02-10T06:13:47.177Z,57.70
2018-02-10T06:16:14.715Z,57.70
2018-02-10T06:18:42.275Z,57.70
2018-02-10T06:21:09.796Z,57.70
2018-02-10T06:23:37.353Z,57.70
2018-02-10T06:26:04.875Z,57.70
2018-02-10T06:28:32.418Z,57.70
2018-02-10T06:30:59.954Z,57.70
2018-02-10T06:33:27.521Z,57.70
2018-02-10T06:35:55.886Z,57.70
2018-02-10T06:38:23.487Z,57.60
2018-02-10T06:40:50.995Z,57.70
2018-02-10T06:43:18.542Z,57.70
2018-02-10T06:45:46.089Z,57.70
2018-02-10T06:48:13.635Z,57.80
2018-02-10T06:50:41.176Z,57.80
2018-02-10T06:53:08.725Z,57.80
2018-02-10T06:55:36.269Z,57.80
2018-02-10T06:58:05.600Z,57.80
2018-02-10T07:00:33.223Z,57.80
2018-02-10T07:03:00.797Z,57.70
2018-02-10T07:05:38.652Z,57.70
2018-02-10T07:08:06.189Z,57.70
2018-02-10T07:10:33.720Z,57.70
2018-02-10T07:13:01.308Z,57.70
2018-02-10T07:15:28.925Z,57.70
2018-02-10T07:17:56.460Z,57.70
2018-02-10T07:20:24.777Z,57.70
2018-02-10T07:22:52.316Z,57.70
2018-02-10T07:25:19.876Z,57.60
2018-02-10T07:27:47.407Z,57.70
2018-02-10T07:30:15.012Z,57.70
2018-02-10T07:32:42.547Z,57.70
2018-02-10T07:35:11.908Z,57.70
2018-02-10T07:37:39.427Z,57.60
2018-02-10T07:40:06.981Z,57.60
2018-02-10T07:42:34.513Z,57.60
2018-02-10T07:45:02.075Z,57.60
2018-02-10T07:47:32.888Z,57.50
2018-02-10T07:50:00.424Z,57.50
2018-02-10T07:52:27.965Z,57.50
2018-02-10T07:54:55.669Z,57.70
2018-02-10T07:57:23.218Z,57.60
2018-02-10T07:59:50.786Z,57.60
2018-02-10T08:02:18.328Z,57.60
2018-02-10T08:04:45.877Z,57.60
2018-02-10T08:07:13.395Z,57.40
2018-02-10T08:09:40.997Z,57.30
2018-02-10T08:12:08.542Z,57.10
2018-02-10T08:14:36.174Z,57.00
2018-02-10T08:17:03.732Z,57.00
2018-02-10T08:19:31.345Z,57.00
2018-02-10T08:21:58.893Z,56.80
2018-02-10T08:24:27.201Z,56.80
2018-02-10T08:26:54.758Z,56.70
2018-02-10T08:29:22.296Z,56.90
2018-02-10T08:31:49.908Z,56.60
2018-02-10T08:34:17.641Z,55.60
2018-02-10T08:36:45.408Z,55.70
2018-02-10T08:39:13.079Z,56.00
2018-02-10T08:41:45.659Z,55.80
2018-02-10T08:44:13.248Z,55.50
2018-02-10T08:46:40.824Z,55.60
2018-02-10T08:49:08.370Z,55.80
2018-02-10T08:51:36.923Z,55.80
2018-02-10T08:54:06.407Z,55.20
2018-02-10T08:56:33.957Z,55.00
2018-02-10T08:59:02.303Z,55.40
2018-02-10T09:01:31.760Z,55.20
2018-02-10T09:04:00.051Z,55.30
2018-02-10T09:06:27.643Z,55.20
2018-02-10T09:08:55.163Z,55.30
2018-02-10T09:11:22.688Z,55.50
2018-02-10T09:13:51.000Z,55.60
2018-02-10T09:16:18.528Z,55.50
2018-02-10T09:18:46.848Z,55.10
2018-02-10T09:21:14.385Z,55.00
2018-02-10T09:23:42.696Z,55.70
2018-02-10T09:26:10.250Z,55.10
2018-02-10T09:28:37.795Z,55.10
2018-02-10T09:31:05.341Z,54.80
2018-02-10T09:33:33.904Z,54.80
2018-02-10T09:36:01.469Z,54.70
2018-02-10T09:38:32.446Z,54.60
2018-02-10T09:41:00.024Z,54.80
2018-02-10T09:43:28.613Z,54.80
2018-02-10T09:45:56.135Z,54.80
2018-02-10T09:48:28.146Z,54.20
2018-02-10T09:50:55.668Z,54.30
2018-02-10T09:53:27.829Z,54.50
2018-02-10T09:55:58.885Z,54.70
2018-02-10T09:58:26.430Z,54.80
2018-02-10T10:00:54.737Z,54.40
2018-02-10T10:03:22.304Z,54.40
2018-02-10T10:05:49.828Z,54.20
2018-02-10T10:08:33.020Z,53.90
2018-02-10T10:11:00.554Z,53.90
2018-02-10T10:13:28.147Z,53.40
2018-02-10T10:15:56.676Z,53.50
2018-02-10T10:18:24.207Z,53.00
2018-02-10T10:20:51.756Z,52.70
2018-02-10T10:23:19.283Z,52.40
2018-02-10T10:25:46.835Z,52.30
2018-02-10T10:28:14.358Z,51.80
2018-02-10T10:30:41.917Z,52.10
2018-02-10T10:33:10.208Z,52.50
2018-02-10T10:35:37.739Z,52.40
2018-02-10T10:38:06.089Z,52.10
2018-02-10T10:40:33.639Z,52.10
2018-02-10T10:43:01.164Z,52.30
2018-02-10T10:45:32.594Z,52.40
2018-02-10T10:48:00.123Z,52.30
2018-02-10T10:50:27.678Z,52.30
2018-02-10T10:52:55.203Z,51.80
2018-02-10T10:55:22.775Z,51.80
2018-02-10T10:57:50.312Z,51.90
2018-02-10T11:00:18.753Z,51.20
2018-02-10T11:02:46.284Z,51.20
2018-02-10T11:05:13.840Z,51.20
2018-02-10T11:07:41.395Z,50.90
2018-02-10T11:10:08.924Z,50.50
2018-02-10T11:12:36.471Z,50.60
2018-02-10T11:15:04.004Z,50.40
2018-02-10T11:17:31.550Z,50.20
2018-02-10T11:19:59.076Z,50.20
2018-02-10T11:22:27.400Z,49.90
2018-02-10T11:24:54.936Z,49.90
2018-02-10T11:27:22.480Z,49.80
2018-02-10T11:29:50.772Z,50.60
2018-02-10T11:32:18.325Z,50.00
2018-02-10T11:34:45.868Z,49.90
2018-02-10T11:37:14.187Z,49.40
2018-02-10T11:39:41.712Z,49.40
2018-02-10T11:42:10.036Z,49.60
2018-02-10T11:44:37.572Z,49.60
2018-02-10T11:47:05.128Z,49.50
2018-02-10T11:49:32.653Z,49.70
2018-02-10T11:52:00.193Z,49.40
2018-02-10T11:54:27.718Z,48.60
2018-02-10T11:56:55.266Z,49.30
2018-02-10T11:59:22.824Z,48.30
2018-02-10T12:01:50.382Z,48.70
2018-02-10T12:04:17.924Z,48.40
2018-02-10T12:06:46.253Z,48.40
2018-02-10T12:09:13.784Z,48.90
2018-02-10T12:11:54.046Z,48.90
2018-02-10T12:14:21.616Z,48.50
2018-02-10T12:16:49.160Z,47.90
2018-02-10T12:19:17.448Z,49.00
2018-02-10T12:21:45.008Z,49.00
2018-02-10T12:24:12.541Z,48.90
2018-02-10T12:26:40.084Z,48.20
2018-02-10T12:29:07.604Z,47.20
2018-02-10T12:31:35.172Z,47.80
2018-02-10T12:34:02.714Z,48.40
2018-02-10T12:36:30.275Z,48.20
2018-02-10T12:38:57.799Z,48.50
2018-02-10T12:41:25.356Z,48.80
2018-02-10T12:43:52.892Z,48.90
2018-02-10T12:46:20.441Z,48.50
2018-02-10T12:48:53.779Z,48.40
2018-02-10T12:51:21.300Z,48.40
2018-02-10T12:53:48.845Z,48.20
2018-02-10T12:56:16.394Z,48.20
2018-02-10T12:58:43.945Z,48.30
2018-02-10T13:01:12.235Z,48.30
2018-02-10T13:03:39.793Z,48.30
2018-02-10T13:06:07.347Z,48.40
2018-02-10T13:08:34.920Z,48.60
2018-02-10T13:11:02.442Z,48.50
2018-02-10T13:13:30.762Z,48.00
2018-02-10T13:15:58.299Z,47.90
2018-02-10T13:18:26.631Z,48.20
2018-02-10T13:20:54.176Z,48.10
2018-02-10T13:23:21.720Z,48.30
2018-02-10T13:25:49.263Z,48.30
2018-02-10T13:28:16.842Z,48.90
2018-02-10T13:30:44.377Z,48.60
2018-02-10T13:33:12.695Z,48.60
2018-02-10T13:35:40.233Z,48.50
2018-02-10T13:38:07.782Z,48.50
2018-02-10T13:40:36.084Z,48.50
2018-02-10T13:43:03.623Z,48.40
2018-02-10T13:45:31.150Z,48.30
2018-02-10T13:47:58.683Z,48.70
2018-02-10T13:50:26.221Z,48.80
2018-02-10T13:52:53.760Z,49.00
2018-02-10T13:55:22.052Z,48.90
2018-02-10T13:57:49.596Z,48.80
2018-02-10T14:00:17.973Z,49.10
2018-02-10T14:02:46.288Z,49.00
2018-02-10T14:05:13.808Z,48.90
2018-02-10T14:07:41.352Z,48.80
2018-02-10T14:10:08.900Z,48.80
2018-02-10T14:12:36.443Z,48.90
2018-02-10T14:15:03.989Z,48.70
2018-02-10T14:17:31.533Z,48.90
2018-02-10T14:19:59.062Z,49.10
2018-02-10T14:22:27.385Z,49.40
2018-02-10T14:24:54.907Z,49.30
2018-02-10T14:27:23.200Z,49.50
2018-02-10T14:29:51.528Z,49.50
2018-02-10T14:32:19.068Z,49.40
2018-02-10T14:34:46.617Z,49.40
2018-02-10T14:37:14.148Z,49.70
2018-02-10T14:39:42.465Z,49.80
2018-02-10T14:42:10.018Z,49.70
2018-02-10T14:44:37.578Z,49.40
2018-02-10T14:47:05.118Z,49.40
2018-02-10T14:49:32.670Z,49.70
2018-02-10T14:52:00.964Z,49.90
2018-02-10T14:54:28.526Z,49.80
2018-02-10T14:56:56.080Z,49.90
2018-02-10T14:59:23.649Z,50.10
2018-02-10T15:01:51.184Z,49.40
2018-02-10T15:04:19.487Z,49.50
2018-02-10T15:06:47.009Z,49.40
2018-02-10T15:09:14.568Z,49.70
2018-02-10T15:11:42.109Z,48.60
2018-02-10T15:14:09.656Z,49.20
2018-02-10T15:16:37.177Z,49.20
2018-02-10T15:19:05.509Z,50.10
2018-02-10T15:21:33.036Z,50.00
2018-02-10T15:24:00.603Z,50.30
2018-02-10T15:26:28.898Z,50.50
2018-02-10T15:28:56.664Z,50.50
2018-02-10T15:31:26.024Z,50.50
2018-02-10T15:34:06.251Z,50.60
2018-02-10T15:36:33.784Z,50.60
2018-02-10T15:39:01.332Z,50.80
2018-02-10T15:41:28.859Z,50.70
2018-02-10T15:43:57.260Z,51.00
2018-02-10T15:46:24.789Z,50.90
2018-02-10T15:48:53.102Z,51.60
2018-02-10T15:51:20.639Z,51.20
2018-02-10T15:53:48.955Z,51.30
2018-02-10T15:56:16.488Z,51.20
2018-02-10T15:58:44.029Z,51.00
2018-02-10T16:01:12.345Z,50.70
2018-02-10T16:03:39.893Z,50.60
2018-02-10T16:06:07.475Z,51.10
2018-02-10T16:08:35.032Z,51.50
2018-02-10T16:11:02.576Z,51.00
2018-02-10T16:13:30.124Z,51.20
2018-02-10T16:15:58.545Z,51.40
2018-02-10T16:18:26.066Z,51.30
2018-02-10T16:20:54.403Z,51.80
2018-02-10T16:23:21.932Z,51.60
2018-02-10T16:25:49.475Z,52.00
2018-02-10T16:28:17.960Z,52.20
2018-02-10T16:30:45.517Z,52.60
2018-02-10T16:33:13.056Z,52.80
2018-02-10T16:35:40.600Z,52.90
2018-02-10T16:38:08.139Z,53.10
2018-02-10T16:40:35.865Z,53.20
2018-02-10T16:43:03.432Z,53.10
2018-02-10T16:45:31.752Z,53.20
2018-02-10T16:47:59.274Z,53.10
2018-02-10T16:50:26.830Z,53.40
2018-02-10T16:52:54.355Z,53.40
2018-02-10T16:55:22.682Z,53.50
2018-02-10T16:57:50.205Z,53.30
2018-02-10T17:00:18.513Z,53.40
2018-02-10T17:02:46.036Z,53.40
2018-02-10T17:05:14.339Z,53.80
2018-02-10T17:07:41.876Z,53.70
2018-02-10T17:10:10.194Z,53.90
2018-02-10T17:12:37.733Z,53.80
2018-02-10T17:15:05.303Z,54.00
2018-02-10T17:17:32.845Z,53.90
2018-02-10T17:20:01.169Z,54.30
2018-02-10T17:22:28.718Z,54.20
2018-02-10T17:24:56.265Z,54.40
2018-02-10T17:27:23.787Z,54.30
2018-02-10T17:29:51.328Z,54.60
2018-02-10T17:32:19.057Z,54.70
2018-02-10T17:34:46.627Z,54.70
2018-02-10T17:37:14.171Z,55.00
2018-02-10T17:39:41.688Z,54.90
2018-02-10T17:42:09.240Z,55.00
2018-02-10T17:44:36.759Z,55.00
2018-02-10T17:47:04.304Z,55.10
2018-02-10T17:49:31.825Z,55.10
2018-02-10T17:51:59.368Z,55.00
2018-02-10T17:54:26.904Z,55.00
2018-02-10T17:56:54.450Z,55.60
2018-02-10T17:59:22.006Z,55.20
2018-02-10T18:01:49.565Z,55.30
2018-02-10T18:04:17.112Z,55.10
2018-02-10T18:06:45.435Z,55.20
2018-02-10T18:09:12.954Z,55.20
2018-02-10T18:11:40.528Z,55.30
2018-02-10T18:14:08.045Z,55.30
2018-02-10T18:16:35.567Z,55.20
2018-02-10T18:19:03.125Z,55.40
2018-02-10T18:21:30.736Z,55.50
2018-02-10T18:23:58.285Z,55.50
2018-02-10T18:26:25.814Z,55.00
2018-02-10T18:28:54.175Z,55.60
2018-02-10T18:31:21.713Z,55.50
2018-02-10T18:33:50.034Z,55.60
2018-02-10T18:36:17.604Z,55.50
2018-02-10T18:38:45.153Z,55.50
2018-02-10T18:41:12.689Z,55.60
2018-02-10T18:43:40.258Z,55.50
2018-02-10T18:46:07.854Z,55.70
2018-02-10T18:48:35.391Z,55.70
2018-02-10T18:51:02.937Z,55.80
2018-02-10T18:53:30.491Z,55.80
2018-02-10T18:55:58.117Z,55.90
2018-02-10T18:58:25.661Z,55.80
2018-02-10T19:00:53.180Z,55.90
2018-02-10T19:03:20.806Z,55.90
2018-02-10T19:05:48.323Z,56.00
2018-02-10T19:08:16.627Z,56.00
2018-02-10T19:10:44.209Z,55.90
2018-02-10T19:13:12.530Z,55.80
2018-02-10T19:15:43.688Z,55.70
2018-02-10T19:18:11.241Z,55.80
2018-02-10T19:20:39.722Z,55.80
2018-02-10T19:23:07.279Z,55.80
2018-02-10T19:25:34.845Z,55.80
2018-02-10T19:28:02.430Z,55.80
2018-02-10T19:30:30.302Z,55.80
2018-02-10T19:32:58.843Z,55.80
2018-02-10T19:35:26.403Z,55.80
2018-02-10T19:37:53.931Z,55.80
2018-02-10T19:40:21.490Z,55.70
2018-02-10T19:42:49.816Z,55.70
2018-02-10T19:45:17.431Z,55.70
2018-02-10T19:47:44.989Z,55.70
2018-02-10T19:50:13.328Z,55.90
2018-02-10T19:52:40.928Z,55.80
2018-02-10T19:55:08.473Z,55.80
2018-02-10T19:57:35.991Z,55.80
2018-02-10T20:00:03.583Z,55.90
2018-02-10T20:02:31.104Z,56.00
2018-02-10T20:04:58.661Z,56.00
2018-02-10T20:07:26.188Z,56.10
2018-02-10T20:09:53.717Z,56.10
2018-02-10T20:12:21.291Z,56.20
2018-02-10T20:14:48.818Z,56.20
2018-02-10T20:17:16.826Z,56.10
2018-02-10T20:19:45.180Z,56.20
2018-02-10T20:22:12.721Z,56.20
2018-02-10T20:24:40.256Z,56.30
2018-02-10T20:27:08.738Z,56.40
2018-02-10T20:29:36.296Z,56.30
2018-02-10T20:32:04.609Z,56.50
2018-02-10T20:34:32.131Z,56.40
2018-02-10T20:36:59.733Z,56.40
2018-02-10T20:39:27.701Z,56.20
2018-02-10T20:41:55.311Z,56.40
2018-02-10T20:44:22.884Z,56.30
2018-02-10T20:46:51.224Z,56.50
2018-02-10T20:49:18.852Z,56.40
2018-02-10T20:51:46.442Z,56.50
2018-02-10T20:54:14.072Z,56.50
2018-02-10T20:56:41.655Z,56.50
2018-02-10T20:59:09.184Z,56.50
2018-02-10T21:01:37.499Z,56.60
2018-02-10T21:04:05.151Z,56.50
2018-02-10T21:06:32.688Z,56.60
2018-02-10T21:09:00.994Z,56.60
2018-02-10T21:11:28.674Z,56.60
2018-02-10T21:13:56.272Z,56.60
2018-02-10T21:16:24.073Z,56.60
2018-02-10T21:18:51.625Z,56.70
2018-02-10T21:21:19.956Z,56.70
2018-02-10T21:23:47.755Z,56.60
2018-02-10T21:26:15.368Z,56.60
2018-02-10T21:28:42.894Z,56.50
2018-02-10T21:31:10.569Z,56.30
2018-02-10T21:33:38.507Z,56.30
2018-02-10T21:36:06.169Z,56.30
2018-02-10T21:38:33.699Z,56.30
2018-02-10T21:41:01.251Z,56.20
2018-02-10T21:43:28.772Z,56.40
2018-02-10T21:45:57.083Z,56.50
2018-02-10T21:48:24.916Z,56.40
2018-02-10T21:50:52.463Z,56.40
2018-02-10T21:53:20.752Z,56.50
2018-02-10T21:55:49.066Z,56.60
2018-02-10T21:58:16.598Z,56.40
2018-02-10T22:00:46.324Z,56.50
2018-02-10T22:03:13.944Z,56.60
2018-02-10T22:05:41.509Z,56.40
2018-02-10T22:08:09.804Z,56.40
2018-02-10T22:10:38.179Z,56.40
2018-02-10T22:13:05.988Z,56.30
2018-02-10T22:15:34.518Z,56.10
2018-02-10T22:18:02.841Z,56.00
2018-02-10T22:20:30.360Z,55.90
2018-02-10T22:22:58.777Z,55.70
2018-02-10T22:25:27.065Z,55.80
2018-02-10T22:27:54.665Z,55.70
2018-02-10T22:30:22.983Z,56.00
2018-02-10T22:32:50.527Z,55.90
2018-02-10T22:35:18.836Z,56.00
2018-02-10T22:37:46.379Z,55.90
2018-02-10T22:40:13.915Z,55.80
2018-02-10T22:42:41.459Z,55.90
2018-02-10T22:45:10.061Z,55.70
2018-02-10T22:47:38.378Z,55.70
2018-02-10T22:50:05.911Z,55.60
2018-02-10T22:52:34.236Z,55.80
2018-02-10T22:55:01.798Z,55.70
2018-02-10T22:57:29.343Z,55.90
2018-02-10T22:59:56.871Z,56.00
2018-02-10T23:02:25.207Z,56.00
2018-02-10T23:04:52.732Z,56.00
2018-02-10T23:07:20.279Z,55.90
2018-02-10T23:09:47.813Z,55.90
2018-02-10T23:12:15.369Z,55.80
2018-02-10T23:14:42.892Z,55.90
2018-02-10T23:17:10.437Z,55.50
2018-02-10T23:19:37.965Z,55.30
2018-02-10T23:22:06.304Z,55.00
2018-02-10T23:24:33.834Z,54.80
2018-02-10T23:27:01.376Z,55.00
2018-02-10T23:29:29.669Z,54.90
2018-02-10T23:31:57.223Z,54.80
2018-02-10T23:34:24.748Z,54.50
2018-02-10T23:36:52.300Z,54.70
2018-02-10T23:39:19.823Z,54.80
2018-02-10T23:41:47.380Z,54.80
2018-02-10T23:44:14.913Z,54.70
2018-02-10T23:46:42.481Z,54.70
2018-02-10T23:49:10.013Z,54.80
2018-02-10T23:51:38.344Z,55.10
2018-02-10T23:54:05.866Z,54.40
2018-02-10T23:56:34.187Z,54.70
2018-02-10T23:59:01.708Z,54.60
